Flight Track Log - Related Links

Times and Time Zones

All times are in EDT time to prevent confusion due to time zone crossing. See the MSR845 flight status page for this flight to view local times or setup timezone preferences in your user account.

Time Position Orientation Groundspeed Altitude Reporting Facility
EDT Latitude Longitude Course Direction KTS MPH feet Rate Location/Type
Sun 02:57:00 AM 30.2913 30.9450 293° West  Level Estimated
Sun 02:58:00 AM 30.3335 30.8296 293° West  Level Estimated
Sun 02:59:00 AM 30.3755 30.7141 293° West  Level Estimated
Sun 03:00:00 AM 30.4174 30.5985 293° West  Level Estimated
Sun 03:01:00 AM 30.4592 30.4828 293° West  Level Estimated
Sun 03:02:00 AM 30.5008 30.3671 293° West  Level Estimated
Sun 03:03:00 AM 30.5424 30.2512 293° West  Level Estimated
Sun 03:04:00 AM 30.5839 30.1352 293° West  Level Estimated
Sun 03:05:00 AM 30.6253 30.0191 293° West  Level Estimated
Sun 03:06:00 AM 30.6666 29.9030 292° West  Level Estimated
Sun 03:07:00 AM 30.7078 29.7867 292° West  Level Estimated
Sun 03:08:00 AM 30.7488 29.6703 292° West  Level Estimated
Sun 03:09:00 AM 30.7898 29.5538 292° West  Level Estimated
Sun 03:10:00 AM 30.8307 29.4372 292° West  Level Estimated
Sun 03:11:00 AM 30.8714 29.3206 292° West  Level Estimated
Sun 03:12:00 AM 30.9121 29.2038 292° West  Level Estimated
Sun 03:13:00 AM 30.9526 29.0869 292° West  Level Estimated
Sun 03:14:00 AM 30.9931 28.9699 292° West  Level Estimated
Sun 03:15:00 AM 31.0334 28.8529 292° West  Level Estimated
Sun 03:16:00 AM 31.0715 28.7421 292° West  Level Estimated
Sun 03:17:00 AM 31.1094 28.6312 292° West  Level Estimated
Sun 03:18:00 AM 31.1473 28.5203 292° West  Level Estimated
Sun 03:19:00 AM 31.1850 28.4092 292° West  Level Estimated
Sun 03:20:00 AM 31.2227 28.2981 292° West  Level Estimated
Sun 03:21:00 AM 31.2603 28.1869 292° West  Level Estimated
Sun 03:22:00 AM 31.2977 28.0756 292° West  Level Estimated
Sun 03:23:00 AM 31.3351 27.9642 291° West  Level Estimated
Sun 03:24:00 AM 31.3724 27.8527 291° West  Level Estimated
Sun 03:25:00 AM 31.4095 27.7412 291° West  Level Estimated
Sun 03:26:00 AM 31.4466 27.6295 291° West  Level Estimated
Sun 03:27:00 AM 31.4836 27.5178 291° West  Level Estimated
Sun 03:28:00 AM 31.5205 27.4060 291° West  Level Estimated
Sun 03:29:00 AM 31.5573 27.2940 291° West  Level Estimated
Sun 03:30:00 AM 31.5940 27.1820 291° West  Level Estimated
Sun 03:31:00 AM 31.6306 27.0699 291° West  Level Estimated
Sun 03:32:00 AM 31.6671 26.9577 291° West  Level Estimated
Sun 03:33:00 AM 31.7035 26.8455 291° West  Level Estimated
Sun 03:34:00 AM 31.7398 26.7331 291° West  Level Estimated
Sun 03:35:00 AM 31.7760 26.6207 291° West  Level Estimated
Sun 03:36:00 AM 31.8121 26.5081 291° West  Level Estimated
Sun 03:37:00 AM 31.8481 26.3955 291° West  Level Estimated
Sun 03:38:00 AM 31.8840 26.2828 291° West  Level Estimated
Sun 03:39:00 AM 31.9198 26.1700 291° West  Level Estimated
Sun 03:40:00 AM 31.9555 26.0571 290° West  Level Estimated
Sun 03:41:00 AM 31.9911 25.9441 290° West  Level Estimated
Sun 03:42:00 AM 32.0266 25.8311 290° West  Level Estimated
Sun 03:43:00 AM 32.0621 25.7179 290° West  Level Estimated
Sun 03:44:00 AM 32.0974 25.6047 290° West  Level Estimated
Sun 03:45:00 AM 32.1326 25.4914 290° West  Level Estimated
Sun 03:46:00 AM 32.1677 25.3780 290° West  Level Estimated
Sun 03:47:00 AM 32.2027 25.2645 290° West  Level Estimated
Sun 03:48:00 AM 32.2376 25.1509 290° West  Level Estimated
Sun 03:49:00 AM 32.2724 25.0372 290° West  Level Estimated
Sun 03:50:00 AM 32.3071 24.9234 290° West  Level Estimated
Sun 03:51:00 AM 32.3417 24.8096 290° West  Level Estimated
Sun 03:52:00 AM 32.3762 24.6957 290° West  Level Estimated
Sun 03:53:00 AM 32.4105 24.5816 290° West  Level Estimated
Sun 03:54:00 AM 32.4448 24.4675 290° West  Level Estimated
Sun 03:55:00 AM 32.4790 24.3533 290° West  Level Estimated
Sun 03:56:00 AM 32.5131 24.2390 290° West  Level Estimated
Sun 03:57:00 AM 32.5471 24.1247 289° West  Level Estimated
Sun 03:58:00 AM 32.5810 24.0102 289° West  Level Estimated
Sun 03:59:00 AM 32.6147 23.8957 289° West  Level Estimated
Sun 04:00:00 AM 32.6484 23.7810 289° West  Level Estimated
Sun 04:01:00 AM 32.6819 23.6663 289° West  Level Estimated
Sun 04:02:00 AM 32.7154 23.5515 289° West  Level Estimated
Sun 04:03:00 AM 32.7488 23.4366 289° West  Level Estimated
Sun 04:04:00 AM 32.7820 23.3217 289° West  Level Estimated
Sun 04:05:00 AM 32.8152 23.2066 289° West  Level Estimated
Sun 04:06:00 AM 32.8482 23.0915 289° West  Level Estimated
Sun 04:06:14 AM 34.0540 24.9700 289° West 394 453 36,000  Level FlightAware ADS-B
Sun 04:06:50 AM 34.0760 24.8980 290° West 397 457 35,900 -79 Descending FlightAware ADS-B
Sun 04:07:00 AM 32.8811 22.9762 289° West  Level Estimated
Sun 04:07:30 AM 34.0950 24.8260 288° West 397 457 35,900  Level FlightAware ADS-B
Sun 04:07:56 AM 34.1160 24.7650 293° West 403 464 36,000 87 Climbing FlightAware ADS-B
Sun 04:08:39 AM 34.1470 24.6600 290° West 404 465 36,000  Level FlightAware ADS-B
Sun 04:09:15 AM 34.1670 24.5920 290° West 403 464 36,000  Level FlightAware ADS-B
Sun 04:09:44 AM 34.1880 24.5220 290° West 402 463 36,000  Level FlightAware ADS-B
Sun 04:10:25 AM 34.2130 24.4360 289° West 400 460 36,000  Level FlightAware ADS-B
Sun 04:10:55 AM 34.2320 24.3730 290° West 401 461 36,000 -92 Level FlightAware ADS-B
Sun 04:11:30 AM 34.2530 24.2990 289° West 403 464 35,900 -87 Descending FlightAware ADS-B
Sun 04:12:04 AM 34.2750 24.2250 290° West 405 466 35,900  Level FlightAware ADS-B
Sun 04:12:40 AM 34.2970 24.1490 289° West 407 468 35,900 86 Level FlightAware ADS-B
Sun 04:13:14 AM 34.3190 24.0730 289° West 410 472 36,000 86 Climbing FlightAware ADS-B
Sun 04:13:50 AM 34.3420 23.9970 290° West 413 475 36,000  Level FlightAware ADS-B
Sun 04:14:29 AM 34.3670 23.9090 289° West 413 475 36,000  Level FlightAware ADS-B
Sun 04:15:00 AM 34.3860 23.8410 289° West 412 474 36,000  Level FlightAware ADS-B
Sun 04:15:34 AM 34.4070 23.7690 289° West 412 474 36,000 -83 Level FlightAware ADS-B
Sun 04:16:12 AM 34.4300 23.6890 289° West 413 475 35,900 -80 Descending FlightAware ADS-B
Sun 04:16:49 AM 34.4540 23.6040 289° West 414 476 35,900 90 Level FlightAware ADS-B
Sun 04:17:19 AM 34.4740 23.5360 290° West 413 475 36,000 91 Climbing FlightAware ADS-B
Sun 04:17:55 AM 34.4970 23.4560 289° West 415 478 36,000  Level FlightAware ADS-B
Sun 04:18:31 AM 34.5190 23.3790 289° West 415 478 36,000  Level FlightAware ADS-B
Sun 04:19:06 AM 34.5410 23.3000 289° West 418 481 36,000  Level FlightAware ADS-B
Sun 04:19:40 AM 34.5630 23.2220 289° West 420 483 36,000  Level FlightAware ADS-B
Sun 04:20:16 AM 34.5850 23.1440 289° West 420 483 36,000  Level FlightAware ADS-B
Sun 04:20:51 AM 34.6070 23.0680 289° West 420 483 36,000  Level FlightAware ADS-B
Sun 04:21:26 AM 34.6290 22.9860 288° West 422 486 36,000  Level FlightAware ADS-B
Sun 04:22:00 AM 34.6470 22.9080 286° West 420 483 36,000  Level FlightAware ADS-B
Sun 04:22:41 AM 34.6670 22.8160 285° West 416 479 36,000  Level FlightAware ADS-B
Sun 04:23:15 AM 34.6850 22.7380 286° West 414 476 36,000 -80 Level FlightAware ADS-B
Sun 04:23:56 AM 34.7050 22.6470 285° West 413 475 35,900  Descending FlightAware ADS-B
Sun 04:24:30 AM 34.7220 22.5700 285° West 412 474 36,000  Climbing FlightAware ADS-B
Sun 04:25:01 AM 34.7370 22.5050 286° West 412 474 35,900 -86 Descending FlightAware ADS-B
Sun 04:25:40 AM 34.7570 22.4130 285° West 410 472 35,900  Level FlightAware ADS-B
Sun 04:26:16 AM 34.7740 22.3330 285° West 410 472 35,900 79 Level FlightAware ADS-B
Sun 04:26:56 AM 34.7940 22.2450 285° West 411 473 36,000 80 Climbing FlightAware ADS-B
Sun 04:27:31 AM 34.8110 22.1650 285° West 410 472 36,000  Level FlightAware ADS-B
Sun 04:28:06 AM 34.8280 22.0890 285° West 410 472 36,000  Level FlightAware ADS-B
Sun 04:28:41 AM 34.8450 22.0080 284° West 410 472 36,000  Level FlightAware ADS-B
Sun 04:29:16 AM 34.8620 21.9300 285° West 409 471 36,000  Level FlightAware ADS-B
Sun 04:29:47 AM 34.8770 21.8630 285° West 407 468 36,000  Level FlightAware ADS-B
Sun 04:30:33 AM 34.8990 21.7570 284° West 406 467 36,000  Level FlightAware ADS-B
Sun 04:31:07 AM 34.9150 21.6840 285° West 404 465 36,000 -82 Level FlightAware ADS-B
Sun 04:31:46 AM 34.9330 21.5990 285° West 403 464 35,900  Descending FlightAware ADS-B
Sun 04:32:17 AM 34.9480 21.5320 285° West 404 465 36,000 92 Climbing FlightAware ADS-B
Sun 04:32:51 AM 34.9640 21.4550 284° West 401 461 36,000  Level FlightAware ADS-B
Sun 04:33:26 AM 34.9790 21.3810 284° West 396 456 36,000  Level FlightAware ADS-B
Sun 04:34:01 AM 34.9940 21.3100 284° West 394 453 36,000  Level FlightAware ADS-B
Sun 04:34:37 AM 35.0100 21.2360 285° West 394 453 36,000 -67 Level FlightAware ADS-B
Sun 04:35:31 AM 35.0330 21.1260 284° West 394 453 35,900 -59 Descending FlightAware ADS-B
Sun 04:36:19 AM 35.0540 21.0230 284° West 395 455 35,900  Level FlightAware ADS-B
Sun 04:36:56 AM 35.0680 20.9550 284° West 395 455 35,900  Level FlightAware ADS-B
Sun 04:37:32 AM 35.0810 20.8890 284° West 395 455 35,900  Level FlightAware ADS-B
Sun 04:38:09 AM 35.0950 20.8210 284° West 395 455 35,900  Level FlightAware ADS-B
Sun 04:38:45 AM 35.1090 20.7550 285° West 395 455 35,900  Level FlightAware ADS-B
Sun 04:39:21 AM 35.1220 20.6880 283° West 395 455 35,900  Level FlightAware ADS-B
Sun 04:39:57 AM 35.1360 20.6220 285° West 395 455 35,900  Level FlightAware ADS-B
Sun 04:40:33 AM 35.1490 20.5560 284° West 395 455 35,900  Level FlightAware ADS-B
Sun 04:41:09 AM 35.1630 20.4890 284° West 395 455 35,900  Level FlightAware ADS-B
Sun 04:41:45 AM 35.1770 20.4230 285° West 395 455 35,900  Level FlightAware ADS-B
Sun 04:42:21 AM 35.1900 20.3560 283° West 395 455 35,900  Level FlightAware ADS-B
Sun 04:42:57 AM 35.2040 20.2900 285° West 395 455 35,900  Level FlightAware ADS-B
Sun 04:43:33 AM 35.2170 20.2240 284° West 395 455 35,900  Level FlightAware ADS-B
Sun 04:44:10 AM 35.2310 20.1550 284° West 395 455 35,900  Level FlightAware ADS-B
Sun 04:44:46 AM 35.2450 20.0890 285° West 395 455 35,900  Level FlightAware ADS-B
Sun 04:45:22 AM 35.2580 20.0220 283° West 395 455 35,900 1,465 Level FlightAware ADS-B
Sun 04:46:12 AM 35.6440 19.9320 349° North 384 442 38,000 1,432 Climbing FlightAware ADS-B
Sun 04:46:50 AM 35.6780 19.8750 306° West 384 442 38,000  Level FlightAware ADS-B
Sun 04:47:26 AM 35.7100 19.8210 306° West 384 442 38,000  Level FlightAware ADS-B
Sun 04:48:02 AM 35.7420 19.7670 306° West 384 442 38,000  Level FlightAware ADS-B
Sun 04:48:38 AM 35.7740 19.7130 306° West 384 442 38,000  Level FlightAware ADS-B
Sun 04:48:53 AM 35.8020 19.6430 296° West 384 442 38,000  Level FlightAware ADS-B
Sun 04:49:40 AM 35.8190 19.5390 281° West 392 451 38,000  Level FlightAware ADS-B
Sun 04:50:52 AM 35.8400 19.3830 279° West 400 460 38,000  Level FlightAware ADS-B
Sun 04:51:25 AM 35.8510 19.3050 280° West 401 461 38,000  Level FlightAware ADS-B
Sun 04:52:19 AM 35.8660 19.1910 279° West 402 463 38,000  Level FlightAware ADS-B
Sun 04:52:50 AM 35.8760 19.1140 279° West 403 464 38,000  Level FlightAware ADS-B
Sun 04:53:22 AM 35.8850 19.0400 279° West 397 457 38,000  Level FlightAware ADS-B
Sun 04:54:00 AM 35.8950 18.9680 280° West 397 457 38,000 -609 Level FlightAware ADS-B
Sun 04:54:31 AM 35.9190 18.9000 294° West 370 426 37,300 -1,406 Descending FlightAware ADS-B
Sun 04:55:04 AM 35.9490 18.8410 302° West 378 435 36,500 -805 Descending FlightAware ADS-B
Sun 04:55:53 AM 35.9940 18.7570 304° West 385 443 36,200 -212 Descending FlightAware ADS-B
Sun 04:56:29 AM 36.0240 18.7000 303° West 385 443 36,200 -279 Level FlightAware ADS-B
Sun 04:56:36 AM 36.0200 18.6560 264° West 396 456 36,000 -261 Descending FlightAware ADS-B
Sun 04:57:15 AM 36.0320 18.5710 280° West 395 455 36,000  Level FlightAware ADS-B
Sun 04:57:51 AM 36.0410 18.4890 278° West 392 451 36,000 -82 Level FlightAware ADS-B
Sun 04:58:28 AM 36.0500 18.4070 278° West 391 450 35,900 -83 Descending FlightAware ADS-B
Sun 04:59:03 AM 36.0590 18.3290 278° West 393 452 35,900  Level FlightAware ADS-B
Sun 04:59:36 AM 36.0670 18.2570 278° West 395 455 35,900 88 Level FlightAware ADS-B
Sun 05:00:11 AM 36.0760 18.1800 278° West 397 457 36,000 85 Climbing FlightAware ADS-B
Sun 05:00:47 AM 36.0850 18.0980 278° West 400 460 36,000  Level FlightAware ADS-B
Sun 05:01:24 AM 36.0940 18.0130 277° West 401 461 36,000  Level FlightAware ADS-B
Sun 05:01:55 AM 36.1010 17.9440 277° West 399 459 36,000  Level FlightAware ADS-B
Sun 05:02:31 AM 36.1100 17.8620 278° West 397 457 36,000  Level FlightAware ADS-B
Sun 05:03:06 AM 36.1180 17.7840 277° West 396 456 36,000  Level FlightAware ADS-B
Sun 05:03:41 AM 36.1270 17.7060 278° West 393 452 36,000  Level FlightAware ADS-B
Sun 05:04:15 AM 36.1340 17.6320 277° West 392 451 36,000 -85 Level FlightAware ADS-B
Sun 05:04:52 AM 36.1430 17.5470 277° West 392 451 35,900 -81 Descending FlightAware ADS-B
Sun 05:05:29 AM 36.1520 17.4680 278° West 391 450 35,900 88 Level FlightAware ADS-B
Sun 05:06:00 AM 36.1590 17.4000 277° West 390 449 36,000 87 Climbing FlightAware ADS-B
Sun 05:06:38 AM 36.1680 17.3130 277° West 387 445 36,000  Level FlightAware ADS-B
Sun 05:07:13 AM 36.1750 17.2370 277° West 385 443 36,000 -88 Level FlightAware ADS-B
Sun 05:07:46 AM 36.1830 17.1660 278° West 385 443 35,900 -88 Descending FlightAware ADS-B
Sun 05:08:21 AM 36.1900 17.0900 277° West 386 444 35,900  Level FlightAware ADS-B
Sun 05:08:57 AM 36.1990 17.0080 278° West 389 448 35,900  Level FlightAware ADS-B
Sun 05:09:31 AM 36.2060 16.9330 277° West 390 449 35,900 87 Level FlightAware ADS-B
Sun 05:10:06 AM 36.2140 16.8560 277° West 391 450 36,000 83 Climbing FlightAware ADS-B
Sun 05:10:43 AM 36.2220 16.7730 277° West 392 451 36,000  Level FlightAware ADS-B
Sun 05:11:24 AM 36.2290 16.7010 277° West 393 452 36,000  Level FlightAware ADS-B
Sun 05:11:56 AM 36.2380 16.6100 277° West 393 452 36,000  Level FlightAware ADS-B
Sun 05:12:31 AM 36.2450 16.5310 276° West 395 455 36,000  Level FlightAware ADS-B
Sun 05:13:06 AM 36.2530 16.4540 277° West 395 455 36,000  Level FlightAware ADS-B
Sun 05:13:43 AM 36.2610 16.3700 277° West 396 456 36,000  Level FlightAware ADS-B
Sun 05:14:19 AM 36.2680 16.2890 276° West 396 456 36,000  Level FlightAware ADS-B
Sun 05:14:54 AM 36.2750 16.2120 276° West 396 456 36,000  Level FlightAware ADS-B
Sun 05:15:30 AM 36.2830 16.1310 277° West 397 457 36,000  Level FlightAware ADS-B
Sun 05:16:05 AM 36.2900 16.0520 276° West 399 459 36,000  Level FlightAware ADS-B
Sun 05:16:37 AM 36.2970 15.9800 277° West 400 460 36,000  Level FlightAware ADS-B
Sun 05:17:13 AM 36.3050 15.8950 277° West 401 461 36,000  Level FlightAware ADS-B
Sun 05:17:49 AM 36.3120 15.8140 276° West 403 464 36,000  Level FlightAware ADS-B
Sun 05:18:25 AM 36.3190 15.7320 276° West 404 465 36,000  Level FlightAware ADS-B
Sun 05:18:57 AM 36.3260 15.6580 277° West 405 466 36,000  Level FlightAware ADS-B
Sun 05:19:34 AM 36.3330 15.5720 276° West 406 467 36,000  Level FlightAware ADS-B
Sun 05:20:07 AM 36.3400 15.4970 277° West 407 468 36,000  Level FlightAware ADS-B
Sun 05:20:43 AM 36.3470 15.4110 276° West 408 470 36,000  Level FlightAware ADS-B
Sun 05:21:18 AM 36.3540 15.3310 276° West 409 471 36,000  Level FlightAware ADS-B
Sun 05:21:52 AM 36.3610 15.2520 276° West 409 471 36,000  Level FlightAware ADS-B
Sun 05:22:29 AM 36.3680 15.1650 276° West 408 470 36,000  Level FlightAware ADS-B
Sun 05:23:06 AM 36.3750 15.0810 276° West 408 470 36,000  Level FlightAware ADS-B
Sun 05:23:37 AM 36.3810 15.0090 276° West 409 471 36,000  Level FlightAware ADS-B
Sun 05:24:11 AM 36.3880 14.9280 276° West 411 473 36,000  Level FlightAware ADS-B
Sun 05:24:50 AM 36.3950 14.8370 275° West 412 474 36,000  Level FlightAware ADS-B
Sun 05:25:25 AM 36.4020 14.7560 276° West 413 475 36,000  Level FlightAware ADS-B
Sun 05:25:57 AM 36.4080 14.6790 276° West 414 476 36,000  Level FlightAware ADS-B
Sun 05:26:34 AM 36.4150 14.5920 276° West 414 476 36,000  Level FlightAware ADS-B
Sun 05:27:09 AM 36.4220 14.5120 276° West 411 473 36,000  Level FlightAware ADS-B
Sun 05:27:41 AM 36.4280 14.4350 276° West 409 471 36,000  Level FlightAware ADS-B
Sun 05:28:19 AM 36.4340 14.3480 275° West 410 472 36,000  Level FlightAware ADS-B
Sun 05:28:55 AM 36.4410 14.2610 276° West 412 474 36,000  Level FlightAware ADS-B
Sun 05:29:30 AM 36.4470 14.1780 275° West 413 475 36,000  Level FlightAware ADS-B
Sun 05:30:03 AM 36.4530 14.1020 276° West 417 480 36,000  Level FlightAware ADS-B
Sun 05:30:39 AM 36.4600 14.0140 276° West 420 483 36,000  Level FlightAware ADS-B
Sun 05:31:16 AM 36.4660 13.9240 275° West 421 484 36,000  Level FlightAware ADS-B
Sun 05:31:48 AM 36.4720 13.8470 276° West 421 484 36,000  Level FlightAware ADS-B
Sun 05:32:23 AM 36.4780 13.7640 275° West 421 484 36,000  Level FlightAware ADS-B
Sun 05:33:00 AM 36.4840 13.6770 275° West 422 486 36,000  Level FlightAware ADS-B
Sun 05:33:28 AM 36.4890 13.6080 275° West 422 486 36,000  Level FlightAware ADS-B
Sun 05:34:00 AM 36.4950 13.5310 276° West 423 487 36,000 -85 Level FlightAware ADS-B
Sun 05:34:39 AM 36.5010 13.4350 274° West 430 495 35,900  Descending FlightAware ADS-B
Sun 05:35:10 AM 36.5070 13.3590 276° West 432 497 36,000 86 Climbing FlightAware ADS-B
Sun 05:35:49 AM 36.5130 13.2640 275° West 431 496 36,000  Level FlightAware ADS-B
Sun 05:36:23 AM 36.5190 13.1790 275° West 428 493 36,000  Level FlightAware ADS-B
Sun 05:36:56 AM 36.5240 13.0990 274° West 426 490 36,000 -86 Level FlightAware ADS-B
Sun 05:37:33 AM 36.5300 13.0080 275° West 425 489 35,900 -82 Descending FlightAware ADS-B
Sun 05:38:09 AM 36.5360 12.9200 275° West 424 488 35,900 85 Level FlightAware ADS-B
Sun 05:38:44 AM 36.5410 12.8360 274° West 422 486 36,000 88 Climbing FlightAware ADS-B
Sun 05:39:17 AM 36.5460 12.7580 275° West 423 487 36,000  Level FlightAware ADS-B
Sun 05:39:52 AM 36.5520 12.6730 275° West 424 488 36,000  Level FlightAware ADS-B
Sun 05:40:28 AM 36.5570 12.5850 274° West 424 488 36,000  Level FlightAware ADS-B
Sun 05:41:01 AM 36.5620 12.5050 274° West 423 487 36,000  Level FlightAware ADS-B
Sun 05:41:38 AM 36.5680 12.4150 275° West 422 486 36,000 -82 Level FlightAware ADS-B
Sun 05:42:14 AM 36.5730 12.3270 274° West 423 487 35,900 -90 Descending FlightAware ADS-B
Sun 05:42:45 AM 36.5780 12.2540 275° West 423 487 35,900 88 Level FlightAware ADS-B
Sun 05:43:22 AM 36.5830 12.1650 274° West 415 478 36,000 81 Climbing FlightAware ADS-B
Sun 05:43:59 AM 36.5880 12.0770 274° West 415 478 36,000  Level FlightAware ADS-B
Sun 05:44:34 AM 36.5930 11.9940 274° West 421 484 36,000  Level FlightAware ADS-B
Sun 05:45:06 AM 36.5970 11.9150 274° West 427 491 36,000  Level FlightAware ADS-B
Sun 05:45:43 AM 36.6020 11.8260 274° West 431 496 36,000  Level FlightAware ADS-B
Sun 05:46:19 AM 36.6080 11.7350 275° West 432 497 36,000  Level FlightAware ADS-B
Sun 05:46:54 AM 36.6160 11.6500 277° West 431 496 36,000  Level FlightAware ADS-B
Sun 05:47:26 AM 36.6220 11.5700 275° West 429 494 36,000  Level FlightAware ADS-B
Sun 05:48:01 AM 36.6300 11.4840 277° West 426 490 36,000  Level FlightAware ADS-B
Sun 05:48:38 AM 36.6370 11.3950 276° West 423 487 36,000 -87 Level FlightAware ADS-B
Sun 05:49:10 AM 36.6440 11.3180 276° West 420 483 35,900 -90 Descending FlightAware ADS-B
Sun 05:49:45 AM 36.6500 11.2350 275° West 418 481 35,900  Level FlightAware ADS-B
Sun 05:50:22 AM 36.6580 11.1460 276° West 416 479 35,900  Level FlightAware ADS-B
Sun 05:50:59 AM 36.6650 11.0610 276° West 415 478 35,900  Level FlightAware ADS-B
Sun 05:51:35 AM 36.6710 10.9750 275° West 419 482 35,900  Level FlightAware ADS-B
Sun 05:52:06 AM 36.6770 10.9010 276° West 421 484 35,900 90 Level FlightAware ADS-B
Sun 05:52:42 AM 36.6840 10.8120 276° West 421 484 36,000 82 Climbing FlightAware ADS-B
Sun 05:53:19 AM 36.6910 10.7240 276° West 421 484 36,000  Level FlightAware ADS-B
Sun 05:53:54 AM 36.6980 10.6380 276° West 419 482 36,000  Level FlightAware ADS-B
Sun 05:54:26 AM 36.7040 10.5620 276° West 418 481 36,000 -88 Level FlightAware ADS-B
Sun 05:55:02 AM 36.7100 10.4750 275° West 419 482 35,900 -83 Descending FlightAware ADS-B
Sun 05:55:38 AM 36.7170 10.3880 276° West 419 482 35,900  Level FlightAware ADS-B
Sun 05:56:12 AM 36.7230 10.3060 275° West 419 482 35,900 86 Level FlightAware ADS-B
Sun 05:56:48 AM 36.7290 10.2220 275° West 419 482 36,000  Climbing FlightAware ADS-B
Sun 05:57:22 AM 36.7350 10.1400 275° West 420 483 35,900 -88 Descending FlightAware ADS-B
Sun 05:57:56 AM 36.7410 10.0570 275° West 422 486 35,900 86 Level FlightAware ADS-B
Sun 05:58:32 AM 36.7480 9.9690 276° West 420 483 36,000 88 Climbing FlightAware ADS-B
Sun 05:59:04 AM 36.7530 9.8940 275° West 419 482 36,000  Level FlightAware ADS-B
Sun 05:59:45 AM 36.7600 9.7970 275° West 418 481 36,000  Level FlightAware ADS-B
Sun 06:00:14 AM 36.7650 9.7280 275° West 417 480 36,000  Level FlightAware ADS-B
Sun 06:00:51 AM 36.7700 9.6450 274° West 415 478 36,000  Level FlightAware ADS-B
Sun 06:01:40 AM 36.7790 9.5240 275° West 414 476 36,000 -71 Level FlightAware ADS-B
Sun 06:02:15 AM 36.7840 9.4400 274° West 415 478 35,900 -87 Descending FlightAware ADS-B
Sun 06:02:49 AM 36.7900 9.3570 275° West 413 475 35,900 86 Level FlightAware ADS-B
Sun 06:03:25 AM 36.7950 9.2740 274° West 413 475 36,000 86 Climbing FlightAware ADS-B
Sun 06:03:59 AM 36.8010 9.1920 275° West 412 474 36,000  Level FlightAware ADS-B
Sun 06:04:34 AM 36.8060 9.1110 274° West 410 472 36,000  Level FlightAware ADS-B
Sun 06:05:15 AM 36.8110 9.0240 274° West 408 470 36,000  Level FlightAware ADS-B
Sun 06:05:55 AM 36.8180 8.9240 275° West 404 465 36,000 -86 Level FlightAware ADS-B
Sun 06:06:25 AM 36.8220 8.8530 274° West 402 463 35,900 -68 Descending FlightAware ADS-B
Sun 06:07:23 AM 36.8210 8.7320 269° West 402 463 35,900  Level FlightAware ADS-B
Sun 06:07:59 AM 36.8210 8.6610 270° West 402 463 35,900  Level FlightAware ADS-B
Sun 06:08:35 AM 36.8210 8.5900 270° West 402 463 35,900  Level FlightAware ADS-B
Sun 06:09:11 AM 36.8210 8.5190 270° West 402 463 35,900  Level FlightAware ADS-B
Sun 06:09:47 AM 36.8210 8.4470 270° West 402 463 35,900  Level FlightAware ADS-B
Sun 06:10:24 AM 36.8210 8.3740 270° West 402 463 35,900  Level FlightAware ADS-B
Sun 06:11:23 AM 36.8210 8.2580 270° West 402 463 35,900  Level FlightAware ADS-B
Sun 06:11:59 AM 36.8210 8.1870 270° West 402 463 35,900  Level FlightAware ADS-B
Sun 06:12:48 AM 36.8210 8.0900 270° West 402 463 35,900  Level FlightAware ADS-B
Sun 06:13:23 AM 36.8210 8.0210 270° West 402 463 35,900  Level FlightAware ADS-B
Sun 06:13:59 AM 36.8210 7.9500 270° West 402 463 35,900  Level FlightAware ADS-B
Sun 06:14:35 AM 36.8210 7.8790 270° West 402 463 35,900  Level FlightAware ADS-B
Sun 06:15:12 AM 36.8210 7.8060 270° West 402 463 35,900  Level FlightAware ADS-B
Sun 06:15:48 AM 36.8210 7.7350 270° West 402 463 35,900  Level FlightAware ADS-B
Sun 06:16:24 AM 36.8210 7.6630 270° West 402 463 35,900 32 Level FlightAware ADS-B
Sun 06:18:37 AM 36.7900 7.1820 266° West 35,900 39 Level FlightAware ADS-B
Sun 06:18:57 AM 36.7880 7.1330 267° West 394 453 36,000 109 Climbing FlightAware ADS-B
Sun 06:19:32 AM 36.7870 7.0690 269° West 394 453 36,000  Level FlightAware ADS-B
Sun 06:20:08 AM 36.7860 6.9990 269° West 394 453 36,000  Level FlightAware ADS-B
Sun 06:20:45 AM 36.7850 6.9280 269° West 394 453 36,000  Level FlightAware ADS-B
Sun 06:21:19 AM 36.7840 6.8620 269° West 394 453 36,000  Level FlightAware ADS-B
Sun 06:21:56 AM 36.7830 6.7900 269° West 394 453 36,000  Level FlightAware ADS-B
Sun 06:22:32 AM 36.7820 6.7210 269° West 394 453 36,000  Level FlightAware ADS-B
Sun 06:23:08 AM 36.7810 6.6510 269° West 394 453 36,000  Level FlightAware ADS-B
Sun 06:23:44 AM 36.7800 6.5820 269° West 394 453 36,000  Level FlightAware ADS-B
Sun 06:24:20 AM 36.7790 6.5120 269° West 394 453 36,000  Level FlightAware ADS-B
Sun 06:24:56 AM 36.7790 6.4420 270° West 394 453 36,000  Level FlightAware ADS-B
Sun 06:25:32 AM 36.7780 6.3730 269° West 394 453 36,000  Level FlightAware ADS-B
Sun 06:26:08 AM 36.7770 6.3030 269° West 394 453 36,000  Level FlightAware ADS-B
Sun 06:26:44 AM 36.7760 6.2330 269° West 394 453 36,000  Level FlightAware ADS-B
Sun 06:27:21 AM 36.7750 6.1620 269° West 394 453 36,000  Level FlightAware ADS-B
Sun 06:27:57 AM 36.7740 6.0920 269° West 394 453 36,000  Level FlightAware ADS-B
Sun 06:28:33 AM 36.7730 6.0230 269° West 394 453 36,000  Level FlightAware ADS-B
Sun 06:31:00 AM 36.7671 5.7104 269° West  Level Estimated
Sun 06:32:00 AM 36.7645 5.5828 269° West  Level Estimated
Sun 06:33:00 AM 36.7617 5.4552 268° West  Level Estimated
Sun 06:34:00 AM 36.7589 5.3277 268° West  Level Estimated
Sun 06:35:00 AM 36.7558 5.2001 268° West  Level Estimated
Sun 06:36:00 AM 36.7527 5.0726 268° West  Level Estimated
Sun 06:37:00 AM 36.7493 4.9451 268° West  Level Estimated
Sun 06:38:00 AM 36.7459 4.8175 268° West  Level Estimated
Sun 06:39:00 AM 36.7423 4.6900 268° West  Level Estimated
Sun 06:40:00 AM 36.7386 4.5625 268° West  Level Estimated
Sun 06:41:00 AM 36.7347 4.4351 268° West  Level Estimated
Sun 06:42:00 AM 36.7308 4.3076 268° West  Level Estimated
Sun 06:43:00 AM 36.7266 4.1801 268° West  Level Estimated
Sun 06:44:00 AM 36.7224 4.0527 268° West  Level Estimated
Sun 06:45:00 AM 36.7180 3.9253 268° West  Level Estimated
Sun 06:46:00 AM 36.7135 3.7978 267° West  Level Estimated
Sun 06:47:00 AM 36.7088 3.6704 267° West  Level Estimated
Sun 06:48:00 AM 36.7040 3.5431 267° West  Level Estimated
Sun 06:49:00 AM 36.6991 3.4157 267° West  Level Estimated
Sun 06:50:00 AM 36.6940 3.2883 267° West  Level Estimated
Sun 06:51:00 AM 36.6910 3.2154 267° West  Level Estimated
Sun 06:52:00 AM 36.6910 3.2154 338° Northwest  Level Estimated
Sun 06:53:00 AM 36.6910 3.2154 338° Northwest  Level Estimated
Sun 06:54:00 AM 36.6910 3.2154 338° Northwest  Level Estimated
Sun 06:55:00 AM 36.6910 3.2154 338° Northwest  Level Estimated
Sun 06:56:00 AM 36.6910 3.2154 338° Northwest  Level Estimated
Sun 06:57:00 AM 36.6910 3.2154 338° Northwest  Level Estimated
Sun 06:58:00 AM 36.6910 3.2154 338° Northwest  Level Estimated
Sun 06:59:00 AM 36.6910 3.2154 338° Northwest  Level Estimated
Sun 07:00:00 AM 36.6910 3.2154 338° Northwest  Level Estimated
Sun 07:01:00 AM 36.6910 3.2154 338° Northwest  Level Estimated
Sun 07:02:00 AM 36.6910 3.2154 338° Northwest  Level Estimated
Sun 07:03:00 AM 36.6910 3.2154 338° Northwest  Level Estimated
Sun 07:04:00 AM 36.6910 3.2154 338° Northwest  Level Estimated
Sun 07:05:00 AM 36.6910 3.2154 338° Northwest  Level Estimated
Sun 07:06:00 AM 36.6910 3.2154 338° Northwest  Level Estimated
Sun 07:07:00 AM 36.6910 3.2154 338° Northwest  Level Estimated

Login

Don't have an account? Register now (free) for customized features, flight alerts, and more!